MSC3204 LQSA-HEGN
Flight info
| Callsign | MSC3204 |
|---|---|
| Flight time | N/A |
| Altitude | 37000 |
| Route | OSLUD DCT NEPSI DCT MEDUX UM867 KOGAT DCT ERANA UL737 TSL UN130 MES UL609 RDS UL995 VANZA DCT RASDA A16 CVO L315 HGD |
| Aircraft | E190/M-SDE3GILORVW/S |
Departure
| Time | 2026-04-27 18:07 |
|---|---|
| Airport | Sarajevo International Airport (LQSA) |
Arrival
| Time | N/A |
|---|---|
| Airport | Hurghada International Airport (HEGN) |
| Time | Latitude | Longitude | Altitude | Speed | Heading |
|---|---|---|---|---|---|
| 2026-04-27 17:44 | 43.82520 | 18.33691 | 1704 ft | 0 kts | 27° |
| 2026-04-27 17:57 | 43.82516 | 18.33689 | 1703 ft | 3 kts | 28° |
| 2026-04-27 17:58 | 43.82494 | 18.33669 | 1706 ft | 4 kts | 44° |
| 2026-04-27 17:58 | 43.82477 | 18.33640 | 1703 ft | 4 kts | 63° |
| 2026-04-27 17:58 | 43.82469 | 18.33606 | 1705 ft | 4 kts | 96° |
| 2026-04-27 17:58 | 43.82471 | 18.33589 | 1705 ft | 3 kts | 118° |
| 2026-04-27 18:01 | 43.82471 | 18.33592 | 1705 ft | 1 kts | 118° |
| 2026-04-27 18:02 | 43.82466 | 18.33603 | 1705 ft | 2 kts | 118° |
| 2026-04-27 18:02 | 43.82456 | 18.33630 | 1703 ft | 5 kts | 117° |
| 2026-04-27 18:02 | 43.82432 | 18.33694 | 1704 ft | 10 kts | 117° |
| 2026-04-27 18:02 | 43.82395 | 18.33793 | 1705 ft | 11 kts | 117° |
| 2026-04-27 18:03 | 43.82359 | 18.33888 | 1706 ft | 12 kts | 117° |
| 2026-04-27 18:03 | 43.82318 | 18.33999 | 1708 ft | 13 kts | 117° |
| 2026-04-27 18:03 | 43.82277 | 18.34108 | 1709 ft | 13 kts | 117° |
| 2026-04-27 18:03 | 43.82231 | 18.34232 | 1710 ft | 15 kts | 117° |
| 2026-04-27 18:04 | 43.82184 | 18.34360 | 1711 ft | 14 kts | 117° |
| 2026-04-27 18:04 | 43.82139 | 18.34479 | 1712 ft | 14 kts | 117° |
| 2026-04-27 18:04 | 43.82092 | 18.34592 | 1713 ft | 14 kts | 134° |
| 2026-04-27 18:04 | 43.82040 | 18.34624 | 1714 ft | 0 kts | 172° |
| 2026-04-27 18:05 | 43.82038 | 18.34624 | 1714 ft | 1 kts | 173° |
| 2026-04-27 18:05 | 43.82008 | 18.34622 | 1714 ft | 8 kts | 188° |
| 2026-04-27 18:06 | 43.81940 | 18.34568 | 1714 ft | 12 kts | 239° |
| 2026-04-27 18:06 | 43.81952 | 18.34500 | 1713 ft | 3 kts | 297° |
| 2026-04-27 18:06 | 43.81993 | 18.34393 | 1712 ft | 33 kts | 298° |
| 2026-04-27 18:06 | 43.82190 | 18.33868 | 1708 ft | 89 kts | 297° |
| 2026-04-27 18:07 | 43.82555 | 18.32897 | 1689 ft | 136 kts | 297° |
| 2026-04-27 18:07 | 43.83052 | 18.31568 | 1715 ft | 169 kts | 297° |
| 2026-04-27 18:07 | 43.83598 | 18.30110 | 2209 ft | 170 kts | 304° |
| 2026-04-27 18:07 | 43.84468 | 18.29049 | 2444 ft | 176 kts | 344° |
| 2026-04-27 18:08 | 43.85776 | 18.29249 | 2533 ft | 205 kts | 30° |
| 2026-04-27 18:08 | 43.86776 | 18.30521 | 3477 ft | 188 kts | 51° |
| 2026-04-27 18:08 | 43.87516 | 18.31944 | 4312 ft | 178 kts | 52° |
| 2026-04-27 18:08 | 43.88010 | 18.32854 | 4742 ft | 179 kts | 51° |
| 2026-04-27 18:09 | 43.88750 | 18.34244 | 5296 ft | 181 kts | 53° |
| 2026-04-27 18:09 | 43.89491 | 18.35744 | 5614 ft | 198 kts | 55° |
| 2026-04-27 18:09 | 43.90250 | 18.37430 | 5967 ft | 213 kts | 57° |
| 2026-04-27 18:09 | 43.91038 | 18.39244 | 6370 ft | 225 kts | 57° |
| 2026-04-27 18:10 | 43.92108 | 18.41770 | 7034 ft | 231 kts | 59° |
| 2026-04-27 18:10 | 43.92570 | 18.43149 | 7338 ft | 239 kts | 69° |
| 2026-04-27 18:10 | 43.92749 | 18.45511 | 7630 ft | 254 kts | 97° |
| 2026-04-27 18:10 | 43.92142 | 18.47804 | 8108 ft | 263 kts | 123° |
| 2026-04-27 18:11 | 43.90819 | 18.49697 | 8222 ft | 288 kts | 150° |
| 2026-04-27 18:11 | 43.89012 | 18.50979 | 8802 ft | 294 kts | 155° |
| 2026-04-27 18:11 | 43.87166 | 18.52227 | 9538 ft | 296 kts | 154° |
| 2026-04-27 18:11 | 43.85327 | 18.53548 | 10249 ft | 300 kts | 153° |
| 2026-04-27 18:12 | 43.83418 | 18.54927 | 10532 ft | 317 kts | 154° |
| 2026-04-27 18:12 | 43.81421 | 18.56321 | 11087 ft | 324 kts | 154° |
| 2026-04-27 18:12 | 43.79453 | 18.57891 | 11732 ft | 329 kts | 141° |
| 2026-04-27 18:12 | 43.77812 | 18.60139 | 12457 ft | 333 kts | 133° |
| 2026-04-27 18:13 | 43.76257 | 18.62547 | 13169 ft | 338 kts | 132° |
| 2026-04-27 18:13 | 43.74680 | 18.64984 | 13902 ft | 342 kts | 132° |
| 2026-04-27 18:13 | 43.73072 | 18.67445 | 14611 ft | 345 kts | 132° |
| 2026-04-27 18:13 | 43.71450 | 18.69911 | 15329 ft | 349 kts | 133° |
| 2026-04-27 18:14 | 43.69816 | 18.72383 | 16032 ft | 352 kts | 133° |
| 2026-04-27 18:14 | 43.68145 | 18.74911 | 16702 ft | 356 kts | 132° |
| 2026-04-27 18:14 | 43.66463 | 18.77455 | 17382 ft | 360 kts | 132° |
| 2026-04-27 18:14 | 43.64783 | 18.79993 | 18045 ft | 364 kts | 132° |
| 2026-04-27 18:15 | 43.63043 | 18.82620 | 18688 ft | 368 kts | 132° |
| 2026-04-27 18:15 | 43.61327 | 18.85213 | 19277 ft | 371 kts | 132° |
| 2026-04-27 18:15 | 43.59577 | 18.87855 | 19840 ft | 376 kts | 132° |
| 2026-04-27 18:15 | 43.57801 | 18.90535 | 20384 ft | 380 kts | 132° |
| 2026-04-27 18:16 | 43.56006 | 18.93242 | 20915 ft | 384 kts | 132° |
| 2026-04-27 18:16 | 43.54194 | 18.95975 | 21438 ft | 388 kts | 132° |
| 2026-04-27 18:16 | 43.52365 | 18.98734 | 21934 ft | 392 kts | 132° |
| 2026-04-27 18:16 | 43.50518 | 19.01519 | 22432 ft | 395 kts | 132° |
| 2026-04-27 18:17 | 43.48676 | 19.04293 | 22890 ft | 400 kts | 132° |
| 2026-04-27 18:17 | 43.46789 | 19.07135 | 23388 ft | 404 kts | 132° |
| 2026-04-27 18:17 | 43.44885 | 19.10002 | 23846 ft | 407 kts | 132° |
| 2026-04-27 18:17 | 43.42964 | 19.12889 | 24301 ft | 409 kts | 132° |
| 2026-04-27 18:18 | 43.41032 | 19.15789 | 24786 ft | 411 kts | 131° |
| 2026-04-27 18:18 | 43.39090 | 19.18699 | 25261 ft | 413 kts | 131° |
| 2026-04-27 18:18 | 43.37163 | 19.21586 | 25683 ft | 416 kts | 131° |
| 2026-04-27 18:18 | 43.35197 | 19.24531 | 26110 ft | 419 kts | 131° |
| 2026-04-27 18:19 | 43.33219 | 19.27492 | 26551 ft | 421 kts | 131° |
| 2026-04-27 18:19 | 43.31233 | 19.30463 | 26970 ft | 423 kts | 131° |
| 2026-04-27 18:19 | 43.29233 | 19.33454 | 27353 ft | 426 kts | 131° |
| 2026-04-27 18:19 | 43.27221 | 19.36463 | 27734 ft | 429 kts | 131° |
| 2026-04-27 18:20 | 43.25198 | 19.39485 | 28108 ft | 431 kts | 131° |
| 2026-04-27 18:20 | 43.23161 | 19.42526 | 28461 ft | 434 kts | 131° |
| 2026-04-27 18:20 | 43.21112 | 19.45582 | 28832 ft | 436 kts | 131° |
| 2026-04-27 18:20 | 43.19050 | 19.48656 | 29187 ft | 438 kts | 131° |
| 2026-04-27 18:21 | 43.16979 | 19.51739 | 29540 ft | 440 kts | 131° |
| 2026-04-27 18:21 | 43.14896 | 19.54839 | 29860 ft | 443 kts | 131° |
| 2026-04-27 18:21 | 43.12833 | 19.57906 | 30189 ft | 445 kts | 131° |
| 2026-04-27 18:21 | 43.10720 | 19.61044 | 30472 ft | 447 kts | 131° |
| 2026-04-27 18:22 | 43.08605 | 19.64181 | 30741 ft | 448 kts | 131° |
| 2026-04-27 18:22 | 43.06479 | 19.67334 | 30978 ft | 451 kts | 132° |
| 2026-04-27 18:22 | 43.04345 | 19.70496 | 31250 ft | 452 kts | 132° |
| 2026-04-27 18:22 | 43.02232 | 19.73624 | 31484 ft | 454 kts | 132° |
| 2026-04-27 18:23 | 43.00087 | 19.76797 | 31715 ft | 456 kts | 132° |
| 2026-04-27 18:23 | 42.97927 | 19.79989 | 31933 ft | 457 kts | 132° |
| 2026-04-27 18:23 | 42.95761 | 19.83188 | 32152 ft | 459 kts | 132° |
| 2026-04-27 18:23 | 42.93588 | 19.86393 | 32364 ft | 460 kts | 132° |
| 2026-04-27 18:24 | 42.91411 | 19.89599 | 32652 ft | 459 kts | 132° |
| 2026-04-27 18:24 | 42.89242 | 19.92788 | 32948 ft | 458 kts | 132° |
| 2026-04-27 18:24 | 42.87070 | 19.95980 | 33211 ft | 458 kts | 132° |
| 2026-04-27 18:24 | 42.84900 | 19.99168 | 33456 ft | 458 kts | 132° |
| 2026-04-27 18:25 | 42.82766 | 20.02298 | 33726 ft | 457 kts | 132° |
| 2026-04-27 18:25 | 42.80601 | 20.05472 | 34003 ft | 456 kts | 132° |
| 2026-04-27 18:25 | 42.78440 | 20.08635 | 34239 ft | 455 kts | 132° |
| 2026-04-27 18:25 | 42.76283 | 20.11791 | 34425 ft | 456 kts | 133° |
| 2026-04-27 18:26 | 42.74124 | 20.14945 | 34604 ft | 456 kts | 133° |
| 2026-04-27 18:26 | 42.71962 | 20.18103 | 34793 ft | 455 kts | 133° |
| 2026-04-27 18:26 | 42.69796 | 20.21264 | 34995 ft | 455 kts | 133° |
| 2026-04-27 18:26 | 42.67631 | 20.24419 | 35160 ft | 456 kts | 133° |
| 2026-04-27 18:27 | 42.65466 | 20.27572 | 35326 ft | 456 kts | 133° |
| 2026-04-27 18:27 | 42.63300 | 20.30722 | 35545 ft | 455 kts | 133° |
| 2026-04-27 18:27 | 42.61136 | 20.33865 | 35714 ft | 455 kts | 133° |
| 2026-04-27 18:27 | 42.58976 | 20.37002 | 35881 ft | 455 kts | 133° |
| 2026-04-27 18:28 | 42.56833 | 20.40111 | 36047 ft | 455 kts | 133° |
| 2026-04-27 18:28 | 42.55425 | 20.42153 | 36157 ft | 455 kts | 133° |
| 2026-04-27 18:28 | 42.53256 | 20.45296 | 36331 ft | 455 kts | 133° |
| 2026-04-27 18:28 | 42.51089 | 20.48431 | 36494 ft | 455 kts | 133° |
| 2026-04-27 18:29 | 42.48950 | 20.51521 | 36650 ft | 455 kts | 134° |
| 2026-04-27 18:29 | 42.46757 | 20.54689 | 36795 ft | 455 kts | 134° |
| 2026-04-27 18:29 | 42.44578 | 20.57831 | 36948 ft | 455 kts | 134° |
| 2026-04-27 18:29 | 42.42449 | 20.60898 | 37293 ft | 448 kts | 134° |
| 2026-04-27 18:30 | 42.38152 | 20.67085 | 37260 ft | 457 kts | 134° |
| 2026-04-27 18:30 | 42.35896 | 20.70326 | 37091 ft | 464 kts | 134° |
| 2026-04-27 18:30 | 42.33673 | 20.73518 | 37138 ft | 467 kts | 134° |
| 2026-04-27 18:31 | 42.29187 | 20.79950 | 37135 ft | 473 kts | 134° |
| 2026-04-27 18:31 | 42.24664 | 20.86418 | 37119 ft | 477 kts | 134° |
| 2026-04-27 18:32 | 42.20104 | 20.92925 | 37140 ft | 477 kts | 134° |
| 2026-04-27 18:32 | 42.15548 | 20.99426 | 37133 ft | 476 kts | 134° |
| 2026-04-27 18:33 | 42.10990 | 21.05898 | 37112 ft | 474 kts | 135° |
| 2026-04-27 18:33 | 42.06213 | 21.12019 | 37134 ft | 473 kts | 139° |
| 2026-04-27 18:34 | 42.01396 | 21.18045 | 37138 ft | 472 kts | 138° |
| 2026-04-27 18:34 | 41.97384 | 21.23131 | 37124 ft | 472 kts | 138° |
| 2026-04-27 18:35 | 41.94109 | 21.27288 | 37129 ft | 471 kts | 138° |
| 2026-04-27 18:35 | 41.90053 | 21.32426 | 37117 ft | 471 kts | 138° |
| 2026-04-27 18:36 | 41.85267 | 21.38478 | 37113 ft | 471 kts | 138° |
| 2026-04-27 18:36 | 41.80529 | 21.44455 | 37111 ft | 470 kts | 139° |
| 2026-04-27 18:37 | 41.75753 | 21.50469 | 37120 ft | 469 kts | 139° |
| 2026-04-27 18:37 | 41.70981 | 21.56462 | 37120 ft | 469 kts | 139° |
| 2026-04-27 18:38 | 41.66209 | 21.62443 | 37125 ft | 472 kts | 139° |
| 2026-04-27 18:38 | 41.61381 | 21.68482 | 37122 ft | 476 kts | 139° |
| 2026-04-27 18:39 | 41.56524 | 21.74546 | 37126 ft | 477 kts | 139° |
| 2026-04-27 18:39 | 41.51705 | 21.80549 | 37124 ft | 476 kts | 139° |
| 2026-04-27 18:40 | 41.46873 | 21.86554 | 37123 ft | 474 kts | 139° |
| 2026-04-27 18:40 | 41.42042 | 21.92545 | 37131 ft | 473 kts | 139° |
| 2026-04-27 18:41 | 41.37226 | 21.98505 | 37142 ft | 472 kts | 139° |
| 2026-04-27 18:41 | 41.32403 | 22.04462 | 37145 ft | 472 kts | 139° |
| 2026-04-27 18:42 | 41.29213 | 22.08394 | 37150 ft | 472 kts | 139° |
| 2026-04-27 18:42 | 41.22796 | 22.16289 | 37158 ft | 472 kts | 139° |
| 2026-04-27 18:43 | 41.17974 | 22.22206 | 37162 ft | 471 kts | 139° |
| 2026-04-27 18:43 | 41.13045 | 22.27907 | 37179 ft | 469 kts | 144° |
| 2026-04-27 18:44 | 41.07904 | 22.33312 | 37171 ft | 474 kts | 143° |
| 2026-04-27 18:44 | 41.02978 | 22.39196 | 37180 ft | 479 kts | 136° |
| 2026-04-27 18:45 | 40.98354 | 22.45461 | 37170 ft | 477 kts | 136° |
| 2026-04-27 18:45 | 40.93704 | 22.51715 | 37169 ft | 476 kts | 136° |
| 2026-04-27 18:46 | 40.89040 | 22.57948 | 37166 ft | 475 kts | 136° |
| 2026-04-27 18:46 | 40.85162 | 22.63118 | 37160 ft | 475 kts | 136° |
| 2026-04-27 18:47 | 40.80511 | 22.69306 | 37170 ft | 474 kts | 136° |
| 2026-04-27 18:47 | 40.77018 | 22.73945 | 37172 ft | 473 kts | 137° |
| 2026-04-27 18:48 | 40.72375 | 22.80100 | 37176 ft | 472 kts | 136° |
| 2026-04-27 18:48 | 40.67736 | 22.86236 | 37178 ft | 472 kts | 137° |
| 2026-04-27 18:49 | 40.63103 | 22.92353 | 37188 ft | 471 kts | 137° |
| 2026-04-27 18:49 | 40.58468 | 22.98458 | 37191 ft | 470 kts | 137° |
| 2026-04-27 18:50 | 40.53844 | 23.04537 | 37183 ft | 470 kts | 137° |
| 2026-04-27 18:50 | 40.49239 | 23.10578 | 37188 ft | 470 kts | 137° |
| 2026-04-27 18:51 | 40.44608 | 23.16642 | 37184 ft | 469 kts | 137° |
| 2026-04-27 18:51 | 40.39946 | 23.22714 | 37202 ft | 474 kts | 137° |
| 2026-04-27 18:52 | 40.35188 | 23.28776 | 37187 ft | 476 kts | 137° |
| 2026-04-27 18:53 | 40.28056 | 23.37864 | 37187 ft | 475 kts | 137° |
| 2026-04-27 18:53 | 40.23318 | 23.43893 | 37176 ft | 474 kts | 137° |
| 2026-04-27 18:54 | 40.18584 | 23.49905 | 37185 ft | 473 kts | 137° |
| 2026-04-27 18:54 | 40.13858 | 23.55893 | 37188 ft | 472 kts | 138° |
| 2026-04-27 18:55 | 40.09129 | 23.61874 | 37189 ft | 472 kts | 138° |
| 2026-04-27 18:55 | 40.04411 | 23.67829 | 37190 ft | 471 kts | 138° |
| 2026-04-27 18:56 | 39.99723 | 23.73732 | 37188 ft | 470 kts | 138° |
| 2026-04-27 18:56 | 39.95015 | 23.79651 | 37187 ft | 470 kts | 138° |
| 2026-04-27 18:57 | 39.90304 | 23.85561 | 37185 ft | 469 kts | 138° |
| 2026-04-27 18:57 | 39.85601 | 23.91448 | 37185 ft | 468 kts | 138° |
| 2026-04-27 18:58 | 39.80890 | 23.97333 | 37190 ft | 472 kts | 138° |
| 2026-04-27 18:58 | 39.76112 | 24.03290 | 37179 ft | 476 kts | 138° |
| 2026-04-27 18:59 | 39.71294 | 24.09287 | 37181 ft | 476 kts | 138° |
| 2026-04-27 18:59 | 39.66535 | 24.15197 | 37179 ft | 475 kts | 138° |
| 2026-04-27 19:00 | 39.61757 | 24.21120 | 37170 ft | 474 kts | 138° |
| 2026-04-27 19:00 | 39.56985 | 24.27022 | 37178 ft | 473 kts | 139° |
| 2026-04-27 19:01 | 39.52224 | 24.32900 | 37176 ft | 472 kts | 139° |
| 2026-04-27 19:01 | 39.47464 | 24.38763 | 37176 ft | 471 kts | 139° |
| 2026-04-27 19:02 | 39.42713 | 24.44605 | 37175 ft | 471 kts | 139° |
| 2026-04-27 19:02 | 39.37991 | 24.50398 | 37171 ft | 470 kts | 139° |
| 2026-04-27 19:03 | 39.33239 | 24.56219 | 37166 ft | 470 kts | 139° |
| 2026-04-27 19:03 | 39.28490 | 24.62022 | 37163 ft | 469 kts | 139° |
| 2026-04-27 19:04 | 39.23752 | 24.67803 | 37162 ft | 468 kts | 139° |
| 2026-04-27 19:04 | 39.19043 | 24.73535 | 37154 ft | 468 kts | 139° |
| 2026-04-27 19:05 | 39.14275 | 24.79330 | 37156 ft | 467 kts | 139° |
| 2026-04-27 19:05 | 39.09542 | 24.85071 | 37153 ft | 467 kts | 139° |
| 2026-04-27 19:06 | 39.04840 | 24.90761 | 37150 ft | 466 kts | 139° |
| 2026-04-27 19:06 | 39.00106 | 24.96481 | 37141 ft | 466 kts | 139° |
| 2026-04-27 19:07 | 38.95381 | 25.02178 | 37138 ft | 465 kts | 139° |
| 2026-04-27 19:07 | 38.90651 | 25.07870 | 37133 ft | 465 kts | 139° |
| 2026-04-27 19:08 | 38.85958 | 25.13507 | 37130 ft | 466 kts | 139° |
| 2026-04-27 19:08 | 38.81189 | 25.19225 | 37136 ft | 472 kts | 139° |
| 2026-04-27 19:09 | 38.76387 | 25.24976 | 37118 ft | 472 kts | 139° |
| 2026-04-27 19:09 | 38.71575 | 25.30728 | 37116 ft | 472 kts | 139° |
| 2026-04-27 19:10 | 38.66782 | 25.36460 | 37109 ft | 471 kts | 139° |
| 2026-04-27 19:10 | 38.61984 | 25.42178 | 37104 ft | 470 kts | 139° |
| 2026-04-27 19:11 | 38.57214 | 25.47848 | 37108 ft | 470 kts | 139° |
| 2026-04-27 19:11 | 38.52417 | 25.53516 | 37100 ft | 469 kts | 139° |
| 2026-04-27 19:12 | 38.47633 | 25.59176 | 37099 ft | 468 kts | 139° |
| 2026-04-27 19:12 | 38.42839 | 25.64833 | 37096 ft | 468 kts | 139° |
| 2026-04-27 19:13 | 38.38056 | 25.70468 | 37093 ft | 467 kts | 139° |
| 2026-04-27 19:13 | 38.33282 | 25.76092 | 37086 ft | 467 kts | 139° |
| 2026-04-27 19:14 | 38.28505 | 25.81705 | 37085 ft | 467 kts | 139° |
| 2026-04-27 19:14 | 38.23728 | 25.87310 | 37080 ft | 466 kts | 139° |
| 2026-04-27 19:15 | 38.18955 | 25.92902 | 37078 ft | 466 kts | 139° |
| 2026-04-27 19:15 | 38.14184 | 25.98474 | 37078 ft | 466 kts | 139° |
| 2026-04-27 19:16 | 38.09415 | 26.04035 | 37074 ft | 465 kts | 139° |
| 2026-04-27 19:16 | 38.04637 | 26.09595 | 37075 ft | 465 kts | 139° |
| 2026-04-27 19:17 | 37.99895 | 26.15106 | 37067 ft | 464 kts | 140° |
| 2026-04-27 19:17 | 37.95120 | 26.20634 | 37071 ft | 464 kts | 139° |
| 2026-04-27 19:18 | 37.90350 | 26.26163 | 37067 ft | 465 kts | 139° |
| 2026-04-27 19:18 | 37.85545 | 26.31753 | 37077 ft | 471 kts | 139° |
| 2026-04-27 19:19 | 37.80698 | 26.37363 | 37063 ft | 471 kts | 139° |
| 2026-04-27 19:19 | 37.75873 | 26.42905 | 37055 ft | 471 kts | 140° |
| 2026-04-27 19:20 | 37.71013 | 26.48457 | 37045 ft | 470 kts | 140° |
| 2026-04-27 19:20 | 37.67021 | 26.53020 | 37043 ft | 470 kts | 139° |
| 2026-04-27 19:21 | 37.62180 | 26.58570 | 37037 ft | 469 kts | 140° |
| 2026-04-27 19:21 | 37.57340 | 26.64108 | 37032 ft | 469 kts | 140° |
| 2026-04-27 19:22 | 37.52507 | 26.69623 | 37030 ft | 468 kts | 139° |
| 2026-04-27 19:22 | 37.47661 | 26.75140 | 37030 ft | 468 kts | 140° |
| 2026-04-27 19:23 | 37.42855 | 26.80603 | 37020 ft | 468 kts | 140° |
| 2026-04-27 19:23 | 37.37990 | 26.86140 | 37028 ft | 469 kts | 139° |
| 2026-04-27 19:24 | 37.33261 | 26.91734 | 37019 ft | 469 kts | 138° |
| 2026-04-27 19:24 | 37.28528 | 26.97379 | 37018 ft | 469 kts | 138° |
| 2026-04-27 19:25 | 37.23785 | 27.03024 | 37012 ft | 469 kts | 138° |
| 2026-04-27 19:25 | 37.19042 | 27.08657 | 37009 ft | 469 kts | 138° |
| 2026-04-27 19:26 | 37.14253 | 27.14335 | 37005 ft | 470 kts | 138° |
| 2026-04-27 19:26 | 37.09487 | 27.19974 | 37013 ft | 470 kts | 138° |
| 2026-04-27 19:27 | 37.04756 | 27.25562 | 37010 ft | 470 kts | 138° |
| 2026-04-27 19:27 | 36.99961 | 27.31216 | 37004 ft | 470 kts | 138° |
| 2026-04-27 19:28 | 36.95188 | 27.36833 | 37006 ft | 471 kts | 138° |
| 2026-04-27 19:28 | 36.90443 | 27.42408 | 37010 ft | 471 kts | 138° |
| 2026-04-27 19:29 | 36.85652 | 27.48026 | 36996 ft | 471 kts | 138° |
| 2026-04-27 19:29 | 36.80884 | 27.53607 | 36989 ft | 471 kts | 138° |
| 2026-04-27 19:30 | 36.76099 | 27.59199 | 36984 ft | 472 kts | 138° |
| 2026-04-27 19:30 | 36.71299 | 27.64796 | 36989 ft | 472 kts | 139° |
| 2026-04-27 19:31 | 36.66502 | 27.70380 | 36974 ft | 472 kts | 139° |
| 2026-04-27 19:31 | 36.61693 | 27.75969 | 36981 ft | 473 kts | 139° |
| 2026-04-27 19:32 | 36.56907 | 27.81523 | 36985 ft | 473 kts | 139° |
| 2026-04-27 19:32 | 36.52050 | 27.87148 | 36983 ft | 474 kts | 139° |
| 2026-04-27 19:33 | 36.47250 | 27.92697 | 36991 ft | 474 kts | 139° |
| 2026-04-27 19:33 | 36.42405 | 27.98287 | 36995 ft | 474 kts | 139° |
| 2026-04-27 19:34 | 36.37557 | 28.03872 | 36995 ft | 475 kts | 139° |
| 2026-04-27 19:34 | 36.32813 | 28.09509 | 37011 ft | 475 kts | 135° |
| 2026-04-27 19:35 | 36.28321 | 28.15561 | 36986 ft | 476 kts | 134° |
| 2026-04-27 19:35 | 36.23844 | 28.21625 | 36984 ft | 477 kts | 134° |
| 2026-04-27 19:36 | 36.19345 | 28.27683 | 36980 ft | 477 kts | 134° |
| 2026-04-27 19:36 | 36.14842 | 28.33733 | 36984 ft | 477 kts | 134° |
| 2026-04-27 19:37 | 36.10333 | 28.39778 | 36986 ft | 478 kts | 134° |
| 2026-04-27 19:37 | 36.05843 | 28.45773 | 36988 ft | 478 kts | 134° |
| 2026-04-27 19:38 | 36.01287 | 28.51813 | 36994 ft | 479 kts | 134° |
| 2026-04-27 19:38 | 35.96737 | 28.57842 | 36995 ft | 480 kts | 134° |
| 2026-04-27 19:39 | 35.92178 | 28.63874 | 36995 ft | 480 kts | 134° |
| 2026-04-27 19:39 | 35.87611 | 28.69892 | 36996 ft | 480 kts | 136° |
| 2026-04-27 19:40 | 35.82823 | 28.75547 | 36995 ft | 479 kts | 139° |
| 2026-04-27 19:40 | 35.77974 | 28.81194 | 36991 ft | 480 kts | 138° |
| 2026-04-27 19:41 | 35.73143 | 28.86884 | 36996 ft | 480 kts | 138° |
| 2026-04-27 19:41 | 35.68318 | 28.92567 | 37000 ft | 480 kts | 138° |
| 2026-04-27 19:42 | 35.63486 | 28.98250 | 36997 ft | 481 kts | 138° |
| 2026-04-27 19:42 | 35.58663 | 29.03912 | 36997 ft | 481 kts | 138° |
| 2026-04-27 19:43 | 35.53820 | 29.09587 | 37000 ft | 481 kts | 138° |
| 2026-04-27 19:43 | 35.48968 | 29.15262 | 36998 ft | 482 kts | 138° |
| 2026-04-27 19:44 | 35.44117 | 29.20928 | 36997 ft | 482 kts | 138° |
| 2026-04-27 19:44 | 35.39252 | 29.26598 | 36999 ft | 482 kts | 138° |
| 2026-04-27 19:45 | 35.34414 | 29.32227 | 36999 ft | 482 kts | 138° |
| 2026-04-27 19:45 | 35.29534 | 29.37897 | 37004 ft | 483 kts | 138° |
| 2026-04-27 19:46 | 35.24656 | 29.43553 | 37002 ft | 483 kts | 138° |
| 2026-04-27 19:46 | 35.19761 | 29.49219 | 37001 ft | 484 kts | 138° |
| 2026-04-27 19:47 | 35.14873 | 29.54867 | 37005 ft | 484 kts | 139° |
| 2026-04-27 19:47 | 35.09974 | 29.60519 | 37006 ft | 484 kts | 139° |
| 2026-04-27 19:48 | 35.05086 | 29.66148 | 37007 ft | 485 kts | 139° |
| 2026-04-27 19:48 | 35.00166 | 29.71804 | 37007 ft | 485 kts | 139° |
| 2026-04-27 19:49 | 34.95254 | 29.77454 | 37009 ft | 485 kts | 138° |
| 2026-04-27 19:49 | 34.90382 | 29.83112 | 37007 ft | 485 kts | 138° |
| 2026-04-27 19:50 | 34.85463 | 29.88807 | 37007 ft | 486 kts | 138° |
| 2026-04-27 19:50 | 34.80547 | 29.94485 | 37006 ft | 486 kts | 138° |
| 2026-04-27 19:51 | 34.75571 | 29.99965 | 37012 ft | 483 kts | 149° |
| 2026-04-27 19:51 | 34.69629 | 30.03674 | 37015 ft | 480 kts | 158° |
| 2026-04-27 19:52 | 34.63587 | 30.07147 | 37005 ft | 480 kts | 158° |
| 2026-04-27 19:52 | 34.57558 | 30.10654 | 37002 ft | 480 kts | 157° |
| 2026-04-27 19:53 | 34.48512 | 30.15931 | 37004 ft | 481 kts | 157° |
| 2026-04-27 19:53 | 34.42519 | 30.19423 | 37000 ft | 481 kts | 157° |
| 2026-04-27 19:54 | 34.36476 | 30.22939 | 37000 ft | 481 kts | 157° |
| 2026-04-27 19:54 | 34.30432 | 30.26450 | 37013 ft | 482 kts | 158° |
| 2026-04-27 19:55 | 34.24391 | 30.29953 | 37015 ft | 482 kts | 158° |
| 2026-04-27 19:55 | 34.19357 | 30.32868 | 37001 ft | 482 kts | 158° |
| 2026-04-27 19:56 | 34.13260 | 30.36395 | 37004 ft | 483 kts | 158° |
| 2026-04-27 19:56 | 34.07200 | 30.39893 | 37017 ft | 483 kts | 158° |
| 2026-04-27 19:57 | 34.01132 | 30.43390 | 37021 ft | 483 kts | 158° |
| 2026-04-27 19:57 | 33.95063 | 30.46883 | 37016 ft | 483 kts | 158° |
| 2026-04-27 19:58 | 33.88983 | 30.50376 | 37019 ft | 484 kts | 158° |
| 2026-04-27 19:58 | 33.82896 | 30.53868 | 37016 ft | 484 kts | 158° |
| 2026-04-27 19:59 | 33.76803 | 30.57358 | 37021 ft | 485 kts | 158° |
| 2026-04-27 19:59 | 33.70707 | 30.60844 | 37019 ft | 485 kts | 158° |
| 2026-04-27 20:00 | 33.64607 | 30.64326 | 37019 ft | 485 kts | 158° |
| 2026-04-27 20:00 | 33.58509 | 30.67803 | 37020 ft | 485 kts | 158° |
| 2026-04-27 20:01 | 33.52398 | 30.71281 | 37027 ft | 486 kts | 158° |
| 2026-04-27 20:01 | 33.50373 | 30.72432 | 37024 ft | 486 kts | 158° |
| 2026-04-27 20:02 | 33.45001 | 30.75484 | 37017 ft | 486 kts | 158° |
| 2026-04-27 20:02 | 33.38889 | 30.78950 | 37018 ft | 486 kts | 158° |
| 2026-04-27 20:03 | 33.32777 | 30.82411 | 37020 ft | 486 kts | 158° |
| 2026-04-27 20:03 | 33.26698 | 30.85848 | 37020 ft | 486 kts | 158° |
| 2026-04-27 20:04 | 33.20579 | 30.89303 | 37017 ft | 487 kts | 159° |
| 2026-04-27 20:04 | 33.14457 | 30.92753 | 37019 ft | 487 kts | 159° |
| 2026-04-27 20:05 | 33.08167 | 30.95465 | 37062 ft | 474 kts | 177° |
| 2026-04-27 20:05 | 33.01586 | 30.96202 | 37000 ft | 474 kts | 180° |
| 2026-04-27 20:06 | 32.95012 | 30.96889 | 37022 ft | 474 kts | 180° |
| 2026-04-27 20:06 | 32.88440 | 30.97608 | 37022 ft | 474 kts | 180° |
| 2026-04-27 20:07 | 32.81868 | 30.98335 | 37018 ft | 475 kts | 180° |
| 2026-04-27 20:07 | 32.75296 | 30.99064 | 37031 ft | 474 kts | 180° |
| 2026-04-27 20:08 | 32.68700 | 30.99794 | 37031 ft | 475 kts | 180° |
| 2026-04-27 20:08 | 32.62114 | 31.00523 | 37033 ft | 475 kts | 180° |
| 2026-04-27 20:09 | 32.55529 | 31.01250 | 37030 ft | 475 kts | 180° |
| 2026-04-27 20:09 | 32.48945 | 31.01976 | 37029 ft | 475 kts | 180° |
| 2026-04-27 20:10 | 32.42348 | 31.02703 | 37032 ft | 476 kts | 180° |
| 2026-04-27 20:10 | 32.35780 | 31.03425 | 37031 ft | 475 kts | 180° |
| 2026-04-27 20:11 | 32.29190 | 31.04148 | 37036 ft | 476 kts | 180° |
| 2026-04-27 20:11 | 32.22558 | 31.04875 | 37033 ft | 475 kts | 180° |
| 2026-04-27 20:12 | 32.19260 | 31.05236 | 37029 ft | 476 kts | 180° |
| 2026-04-27 20:13 | 32.14147 | 31.05803 | 36981 ft | 461 kts | 180° |
| 2026-04-27 20:14 | 32.11009 | 31.06163 | 36862 ft | 451 kts | 180° |
| 2026-04-27 20:14 | 32.07841 | 31.06534 | 36689 ft | 443 kts | 180° |
| 2026-04-27 20:14 | 32.04799 | 31.06898 | 36489 ft | 436 kts | 180° |
| 2026-04-27 20:14 | 32.01801 | 31.07262 | 36273 ft | 430 kts | 180° |
| 2026-04-27 20:15 | 31.98831 | 31.07628 | 36033 ft | 426 kts | 180° |
| 2026-04-27 20:15 | 31.95898 | 31.07994 | 35785 ft | 421 kts | 180° |
| 2026-04-27 20:15 | 31.92994 | 31.08361 | 35536 ft | 418 kts | 180° |
| 2026-04-27 20:15 | 31.90115 | 31.08729 | 35284 ft | 415 kts | 180° |
| 2026-04-27 20:16 | 31.87255 | 31.09097 | 35024 ft | 412 kts | 180° |
| 2026-04-27 20:16 | 31.84412 | 31.09467 | 34767 ft | 410 kts | 180° |
| 2026-04-27 20:16 | 31.81576 | 31.09838 | 34514 ft | 408 kts | 180° |
| 2026-04-27 20:16 | 31.78707 | 31.10215 | 34266 ft | 406 kts | 180° |
| 2026-04-27 20:17 | 31.75964 | 31.10578 | 34009 ft | 404 kts | 180° |
| 2026-04-27 20:17 | 31.73174 | 31.10950 | 33722 ft | 403 kts | 180° |
| 2026-04-27 20:17 | 31.70393 | 31.11322 | 33441 ft | 401 kts | 180° |
| 2026-04-27 20:17 | 31.68525 | 31.11574 | 33263 ft | 400 kts | 180° |
| 2026-04-27 20:18 | 31.64871 | 31.12068 | 32910 ft | 398 kts | 180° |
| 2026-04-27 20:18 | 31.62131 | 31.12441 | 32645 ft | 396 kts | 180° |
| 2026-04-27 20:18 | 31.59363 | 31.12820 | 32398 ft | 394 kts | 180° |
| 2026-04-27 20:18 | 31.56677 | 31.13191 | 32156 ft | 393 kts | 180° |
| 2026-04-27 20:19 | 31.53966 | 31.13567 | 31912 ft | 391 kts | 180° |
| 2026-04-27 20:19 | 31.51269 | 31.13943 | 31676 ft | 390 kts | 180° |
| 2026-04-27 20:19 | 31.48576 | 31.14320 | 31443 ft | 388 kts | 180° |
| 2026-04-27 20:19 | 31.45892 | 31.14699 | 31206 ft | 387 kts | 180° |
| 2026-04-27 20:20 | 31.43217 | 31.15078 | 31000 ft | 386 kts | 179° |
| 2026-04-27 20:20 | 31.40556 | 31.15457 | 30763 ft | 385 kts | 179° |
| 2026-04-27 20:20 | 31.37898 | 31.15838 | 30542 ft | 384 kts | 180° |
| 2026-04-27 20:20 | 31.35251 | 31.16220 | 30336 ft | 383 kts | 179° |
| 2026-04-27 20:21 | 31.32611 | 31.16602 | 30114 ft | 382 kts | 179° |
| 2026-04-27 20:21 | 31.29981 | 31.16984 | 29870 ft | 381 kts | 179° |
| 2026-04-27 20:21 | 31.27356 | 31.17367 | 29631 ft | 379 kts | 179° |
| 2026-04-27 20:21 | 31.24717 | 31.17752 | 29396 ft | 378 kts | 179° |
| 2026-04-27 20:22 | 31.22412 | 31.18089 | 29198 ft | 377 kts | 179° |
| 2026-04-27 20:22 | 31.22292 | 31.18106 | 29195 ft | 377 kts | 179° |